• Join FlightAware (Why Join?)
  • Login
  • US Flag 
10:43PM EDT


 

Airport Tracker/Info


-or-


 

Live Flight TrackerFlight Track Log ✈ DAL268 ✈ 08-May-2013 ✈ KATL - KJFK

Flight Track Log - Related Links

Times and Time Zones

All times are in EDT time to prevent confusion due to time zone crossing. See the DAL268 flight status page for this flight to view local times or setup timezone preferences in your user account.

Time Position Orientation Groundspeed Altitude Reporting Facility
EDT Latitude Longitude Course Direction KTS MPH feet Rate Location/Type
08:01PM 33.6333 -84.4667 64° Northeast 177 204 2,200  Level Atlanta TRACON
08:02PM 33.6167 -84.5333 253° West 241 277 3,500 1,920 Climbing Atlanta TRACON
08:03PM 33.5667 -84.5833 220° Southwest 277 319 6,100 2,400 Climbing Atlanta TRACON
08:04PM 33.7074 -83.9776 101° East  Level FlightAware Approximate
08:04PM 33.4833 -84.5667 171° South 298 343 8,400  Level Atlanta TRACON
08:05PM 33.6828 -83.8294 101° East  Level FlightAware Approximate
08:06PM 33.6580 -83.6814 101° East  Level FlightAware Approximate
08:06PM 33.4578 -84.3425 98° East 322 371 11,700  Level Atlanta Center
08:07PM 33.6875 -83.5417 64° Northeast  Level FlightAware Approximate
08:07PM 33.4831 -84.2131 77° East 369 425 13,400  Level Atlanta Center
08:08PM 33.5375 -84.0886 62° Northeast 396 456 15,400 1,920 Climbing Atlanta Center
08:09PM 33.5939 -83.9614 62° Northeast 418 481 17,300 1,860 Climbing Atlanta Center
08:10PM 33.6542 -83.8342 60° Northeast 437 503 19,200 1,740 Climbing Atlanta Center
08:11PM 33.7167 -83.7042 60° Northeast 445 512 20,800 1,500 Climbing Atlanta Center
08:12PM 33.7786 -83.5689 61° Northeast 445 512 22,300 1,620 Climbing Atlanta Center
08:13PM 33.8428 -83.4336 60° Northeast 452 520 24,100 1,320 Climbing Atlanta Center
08:14PM 33.9089 -83.2903 61° Northeast 452 520 25,000 420 Climbing Atlanta Center
08:15PM 33.9706 -83.1547 61° Northeast 452 520 25,000  Level Atlanta Center
08:16PM 34.0300 -83.0261 61° Northeast 452 520 25,000  Level Atlanta Center
08:17PM 34.0936 -82.8900 61° Northeast 452 520 25,000  Level Atlanta Center
08:18PM 34.1528 -82.7586 61° Northeast 447 514 25,000  Level Atlanta Center
08:19PM 34.2119 -82.6272 61° Northeast 447 514 25,000  Level Atlanta Center
08:20PM 34.2728 -82.4928 61° Northeast 447 514 25,000  Level Atlanta Center
08:21PM 34.3336 -82.3583 61° Northeast 447 514 25,000  Level Atlanta Center
08:22PM 34.3944 -82.2264 61° Northeast 447 514 25,000  Level Atlanta Center
08:23PM 34.4528 -82.0889 63° Northeast 447 514 25,000  Level Atlanta Center
08:24PM 34.5153 -81.9564 60° Northeast 447 514 25,000  Level Atlanta Center
08:25PM 34.5756 -81.8186 62° Northeast 447 514 25,000  Level Atlanta Center
08:26PM 34.6378 -81.6833 61° Northeast 452 520 25,000  Level Atlanta Center
08:27PM 34.6956 -81.5503 62° Northeast 452 520 25,000  Level Atlanta Center
08:28PM 34.7575 -81.4119 61° Northeast 452 520 25,000  Level Atlanta Center
08:29PM 34.8169 -81.2733 62° Northeast 457 526 25,000  Level Atlanta Center
08:30PM 34.8786 -81.1372 61° Northeast 457 526 25,000  Level Atlanta Center
08:31PM 34.9397 -80.9958 62° Northeast 462 532 25,000  Level Atlanta Center
08:32PM 34.9989 -80.8567 63° Northeast 462 532 25,000  Level Atlanta Center
08:35PM 35.1333 -80.5419 62° Northeast 462 532 25,000  Level Washington Center
08:36PM 35.1933 -80.4033 62° Northeast 462 532 25,000  Level Washington Center
08:37PM 35.2533 -80.2619 63° Northeast 462 532 25,000  Level Washington Center
08:38PM 35.3089 -80.1175 65° Northeast 462 532 25,000  Level Washington Center
08:39PM 35.3586 -79.9547 69° East 456 525 25,000  Level Washington Center
08:40PM 35.4039 -79.8017 70° East 461 531 25,000  Level Washington Center
08:41PM 35.4489 -79.6486 70° East 467 537 25,000  Level Washington Center
08:42PM 35.4986 -79.4650 72° East 467 537 25,000  Level Washington Center
08:43PM 35.5431 -79.3139 70° East 467 537 25,000  Level Washington Center
08:44PM 35.5856 -79.1600 71° East 473 544 25,000  Level Washington Center
08:45PM 35.6275 -79.0061 71° East 473 544 25,000  Level Washington Center
08:46PM 35.6692 -78.8544 71° East 473 544 25,000  Level Washington Center
08:47PM 35.7153 -78.6978 70° East 478 550 25,000  Level Washington Center
08:48PM 35.7544 -78.5533 71° East 478 550 25,000  Level Washington Center
08:49PM 35.7956 -78.3961 72° East 478 550 25,000  Level Washington Center
08:50PM 35.8369 -78.2386 72° East 478 550 25,000  Level Washington Center
08:51PM 35.8797 -78.0811 71° East 478 550 25,000  Level Washington Center
08:52PM 35.9206 -77.9261 72° East 478 550 25,000  Level Washington Center
08:53PM 35.9631 -77.7708 71° East 478 550 25,000  Level Washington Center
08:54PM 36.0261 -77.6286 61° Northeast 478 550 25,000  Level Washington Center
08:55PM 36.1053 -77.4997 53° Northeast 463 533 25,000  Level Washington Center
08:56PM 36.1911 -77.3575 53° Northeast 468 539 25,000  Level Washington Center
08:57PM 36.2658 -77.2381 52° Northeast 477 549 25,000 -60 Level Washington Center
08:58PM 36.3553 -77.0878 54° Northeast 482 555 24,900 -60 Descending Washington Center
08:59PM 36.4319 -76.9525 55° Northeast 482 555 24,900  Level Washington Center
09:00PM 36.4608 -76.7878 78° East 471 542 24,900  Level Washington Center
09:01PM 36.4833 -76.6200 80° East 471 542 24,900  Level Washington Center
09:02PM 36.5056 -76.4550 80° East 481 554 24,900  Level Washington Center
09:03PM 36.5608 -76.3056 65° Northeast 467 537 24,900  Level Washington Center
09:04PM 36.6781 -76.2186 31° Northeast 459 528 24,900  Level Washington Center
09:05PM 36.7889 -76.1678 20° North 445 512 25,000  Climbing Washington Center
09:06PM 36.9122 -76.1089 21° North 459 528 25,000 -60 Level Washington Center
09:07PM 37.0522 -76.0369 22° Northeast 481 554 24,900 -60 Descending Washington Center
09:08PM 37.1756 -75.9672 24° Northeast 481 554 24,900  Level Washington Center
09:09PM 37.3008 -75.8972 24° Northeast 481 554 24,900  Level Washington Center
09:10PM 37.4242 -75.8297 23° Northeast 481 554 24,900  Level Washington Center
09:11PM 37.5453 -75.7569 25° Northeast 481 554 24,900  Level Washington Center
09:12PM 37.6683 -75.6889 24° Northeast 481 554 24,900  Level Washington Center
09:13PM 37.7664 -75.6339 24° Northeast 481 554 24,900  Level Washington Center
09:14PM 37.9167 -75.5497 24° Northeast 486 559 24,900  Level Washington Center
09:15PM 38.0272 -75.4864 24° Northeast 486 559 24,900  Level Washington Center
09:16PM 38.1500 -75.4147 25° Northeast 481 554 24,900  Level Washington Center
09:17PM 38.2731 -75.3406 25° Northeast 481 554 24,900  Level Washington Center
09:18PM 38.3936 -75.2500 30° Northeast 488 562 24,900  Level Washington Center
09:19PM 38.5164 -75.1778 25° Northeast 488 562 24,900  Level Washington Center
09:20PM 38.6369 -75.1000 27° Northeast 488 562 24,900  Level Washington Center
09:21PM 38.7556 -75.0247 26° Northeast 481 554 24,900  Level Washington Center
09:22PM 38.8697 -74.9492 27° Northeast 470 541 24,900  Level Washington Center
09:23PM 38.9881 -74.8706 27° Northeast 463 533 24,900  Level Washington Center
09:24PM 39.1022 -74.7944 27° Northeast 463 533 24,900 -60 Level Washington Center
09:25PM 39.2036 -74.6864 40° Northeast 463 533 24,800 -720 Descending Washington Center
09:26PM 39.3211 -74.5603 40° Northeast 456 525 23,300 -1,560 Descending New York Center
09:27PM 39.4117 -74.4603 40° Northeast 445 512 21,500 -1,920 Descending New York Center
09:28PM 39.5025 -74.3600 40° Northeast 433 498 19,600 -1,740 Descending New York Center
09:29PM 39.5994 -74.2544 40° Northeast 415 478 18,000 -1,500 Descending New York Center
09:30PM 39.6833 -74.1617 40° Northeast 409 471 16,600 -1,680 Descending New York Center
09:31PM 39.7672 -74.0711 40° Northeast 404 465 14,700 -1,920 Descending New York Center
09:32PM 39.8425 -73.9936 38° Northeast 387 445 12,900 -1,800 Descending New York Center
09:33PM 39.9317 -73.9272 30° Northeast 374 430 11,100 -960 Descending New York Center
09:34PM 40.0192 -73.8581 31° Northeast 349 402 11,000 -360 Descending New York Center
09:35PM 40.0831 -73.7986 35° Northeast 317 365 10,500 -1,020 Descending New York Center
09:36PM 40.1578 -73.7286 36° Northeast 297 342 9,000 -1,680 Descending New York Center
09:37PM 40.1833 -73.7000 41° Northeast 294 338 8,200 -1,620 Descending New York TRACON
09:38PM 40.2500 -73.6667 21° North 293 337 6,900 -1,560 Descending New York TRACON
09:39PM 40.3167 -73.6167 30° Northeast 289 333 5,300 -1,500 Descending New York TRACON
09:39PM 40.3656 -73.5878 24° Northeast 286 329 4,400 -1,380 Descending New York Center
09:40PM 40.4000 -73.5667 25° Northeast 286 329 4,000 -360 Descending New York TRACON
09:41PM 40.4667 -73.5167 30° Northeast 284 327 4,000  Level New York TRACON
09:42PM 40.5500 -73.4833 17° North 284 327 4,000  Level New York TRACON
09:43PM 40.6167 -73.4333 30° Northeast 290 334 4,000  Level New York TRACON
09:44PM 40.7000 -73.4500 351° North 288 331 4,000 -420 Level New York TRACON
09:45PM 40.7667 -73.4833 339° North 278 320 3,200 -720 Descending New York TRACON
09:45PM 40.8167 -73.5333 323° Northwest 252 290 2,700 -660 Descending New York TRACON
09:46PM 40.8167 -73.6000 270° West 176 203 2,000 -360 Descending New York TRACON
09:47PM 40.7833 -73.6500 229° Southwest 166 191 2,000  Level New York TRACON